createdAt,value
2022-11-05T00:03:14.281Z,19.10
2022-11-05T00:08:39.073Z,20.40
2022-11-05T00:14:03.989Z,19.30
2022-11-05T00:19:10.286Z,18.50
2022-11-05T00:30:30.712Z,21.40
2022-11-05T00:35:36.676Z,19.30
2022-11-05T00:40:43.393Z,20.20
2022-11-05T00:45:49.432Z,19.10
2022-11-05T00:50:55.466Z,21.30
2022-11-05T00:56:02.092Z,21.50
2022-11-05T01:01:10.144Z,16.90
2022-11-05T01:06:18.029Z,19.00
2022-11-05T01:11:33.570Z,17.70
2022-11-05T01:16:40.862Z,17.20
2022-11-05T01:21:47.249Z,21.90
2022-11-05T01:26:53.050Z,18.50
2022-11-05T01:31:59.040Z,18.20
2022-11-05T01:37:05.371Z,20.50
2022-11-05T01:42:19.928Z,19.90
2022-11-05T01:47:50.323Z,18.10
2022-11-05T01:53:02.726Z,20.50
2022-11-05T01:58:13.064Z,21.90
2022-11-05T02:03:19.861Z,19.60
2022-11-05T02:08:38.025Z,24.80
2022-11-05T02:13:44.577Z,20.30
2022-11-05T02:18:59.335Z,20.80
2022-11-05T02:24:41.669Z,21.50
2022-11-05T02:30:12.636Z,21.00
2022-11-05T02:35:28.672Z,20.40
2022-11-05T02:40:43.285Z,18.90
2022-11-05T02:46:00.509Z,24.30
2022-11-05T02:51:15.037Z,28.00
2022-11-05T02:56:24.690Z,21.20
2022-11-05T03:01:31.017Z,22.70
2022-11-05T03:06:49.582Z,23.40
2022-11-05T03:12:06.268Z,25.60
2022-11-05T03:17:27.310Z,27.50
2022-11-05T03:22:38.678Z,35.00
2022-11-05T03:27:48.632Z,22.40
2022-11-05T03:32:59.322Z,25.30
2022-11-05T03:38:11.003Z,24.30
2022-11-05T03:43:19.423Z,21.30
2022-11-05T03:48:28.685Z,24.20
2022-11-05T03:53:41.228Z,22.60
2022-11-05T03:58:48.060Z,25.40
2022-11-05T04:03:54.041Z,21.30
2022-11-05T04:09:18.751Z,24.90
2022-11-05T04:14:26.362Z,26.40
2022-11-05T04:19:51.160Z,22.60
2022-11-05T04:24:57.197Z,20.10
2022-11-05T04:30:19.060Z,20.80
2022-11-05T04:35:25.760Z,24.20
2022-11-05T04:40:32.246Z,27.60
2022-11-05T04:45:38.053Z,25.70
2022-11-05T04:50:44.163Z,29.80
2022-11-05T04:55:50.041Z,27.30
2022-11-05T05:00:55.956Z,27.80
2022-11-05T05:06:03.900Z,26.90
2022-11-05T05:11:14.216Z,24.20
2022-11-05T05:16:22.454Z,24.00
2022-11-05T05:21:41.299Z,28.70
2022-11-05T05:26:50.415Z,23.90
2022-11-05T05:31:56.252Z,22.40
2022-11-05T05:37:02.299Z,26.40
2022-11-05T05:42:08.440Z,28.30
2022-11-05T05:47:14.857Z,24.40
2022-11-05T05:52:21.106Z,23.70
2022-11-05T05:57:26.885Z,23.70
2022-11-05T06:02:33.448Z,28.90
2022-11-05T06:07:39.545Z,28.00
2022-11-05T06:12:45.649Z,29.40
2022-11-05T06:17:51.519Z,26.60
2022-11-05T06:22:58.157Z,28.70
2022-11-05T06:28:06.941Z,29.60
2022-11-05T06:33:13.382Z,28.70
2022-11-05T06:38:20.092Z,29.40
2022-11-05T06:43:26.205Z,33.60
2022-11-05T06:49:25.948Z,26.60
2022-11-05T06:54:31.811Z,25.70
2022-11-05T06:59:38.253Z,29.90
2022-11-05T07:04:44.033Z,35.60
2022-11-05T07:09:53.478Z,34.70
2022-11-05T07:14:59.658Z,31.20
2022-11-05T07:20:07.811Z,36.00
2022-11-05T07:25:13.982Z,28.40
2022-11-05T07:30:19.978Z,29.20
2022-11-05T07:35:26.497Z,26.90
2022-11-05T07:40:32.658Z,33.30
2022-11-05T07:45:38.606Z,49.10
2022-11-05T07:50:44.705Z,32.00
2022-11-05T07:55:52.592Z,29.00
2022-11-05T08:00:59.962Z,33.90
2022-11-05T08:06:06.429Z,31.50
2022-11-05T08:11:13.304Z,23.30
2022-11-05T08:16:19.192Z,33.20
2022-11-05T08:21:25.504Z,31.70
2022-11-05T08:26:31.380Z,33.90
2022-11-05T08:31:37.696Z,41.70
2022-11-05T08:36:46.489Z,52.50
2022-11-05T08:41:52.368Z,44.70
2022-11-05T08:46:58.872Z,33.90
2022-11-05T08:52:05.593Z,37.90
2022-11-05T08:57:11.645Z,34.10
2022-11-05T09:02:17.603Z,31.80
2022-11-05T09:07:23.689Z,30.70
2022-11-05T09:12:29.729Z,32.20
2022-11-05T09:17:35.928Z,28.10
2022-11-05T09:22:43.457Z,32.70
2022-11-05T09:27:50.306Z,40.90
2022-11-05T09:32:56.409Z,34.40
2022-11-05T09:38:02.497Z,26.40
2022-11-05T09:43:16.075Z,33.60
2022-11-05T09:48:27.982Z,30.80
2022-11-05T09:58:45.391Z,34.80
2022-11-05T10:03:55.613Z,39.70
2022-11-05T10:09:07.638Z,36.90
2022-11-05T10:14:19.572Z,34.20
2022-11-05T10:19:31.072Z,33.30
2022-11-05T10:24:39.571Z,36.80
2022-11-05T10:29:47.328Z,56.20
2022-11-05T10:34:55.248Z,51.60
2022-11-05T10:40:01.627Z,30.70
2022-11-05T10:45:21.197Z,41.60
2022-11-05T10:50:29.589Z,39.90
2022-11-05T10:55:38.581Z,37.20
2022-11-05T11:01:00.033Z,37.80
2022-11-05T11:06:15.196Z,39.30
2022-11-05T11:11:36.061Z,46.10
2022-11-05T11:16:44.487Z,38.70
2022-11-05T11:22:21.446Z,36.10
2022-11-05T11:27:34.012Z,42.30
2022-11-05T11:32:41.360Z,41.00
2022-11-05T11:37:48.870Z,36.90
2022-11-05T11:42:58.249Z,38.70
2022-11-05T11:48:12.319Z,37.90
2022-11-05T11:53:44.210Z,38.90
2022-11-05T11:58:52.518Z,39.20
2022-11-05T12:04:07.760Z,37.70
2022-11-05T12:09:23.242Z,38.60
2022-11-05T12:14:41.224Z,47.80
2022-11-05T12:20:20.325Z,42.50
2022-11-05T12:25:54.535Z,59.90
2022-11-05T12:31:11.729Z,47.10
2022-11-05T12:36:30.852Z,49.20
2022-11-05T12:41:46.517Z,45.60
2022-11-05T12:47:04.816Z,50.30
2022-11-05T12:52:30.362Z,41.40
2022-11-05T12:57:41.242Z,51.60
2022-11-05T13:02:54.973Z,47.90
2022-11-05T13:08:07.768Z,48.60
2022-11-05T13:13:19.218Z,49.50
2022-11-05T13:18:30.040Z,48.60
2022-11-05T13:23:44.506Z,47.00
2022-11-05T13:28:55.637Z,42.30
2022-11-05T13:34:06.244Z,45.60
2022-11-05T13:39:20.032Z,47.90
2022-11-05T13:44:47.532Z,67.60
2022-11-05T13:50:39.174Z,57.20
2022-11-05T13:55:57.720Z,49.80
2022-11-05T14:01:16.258Z,49.20
2022-11-05T14:06:28.693Z,46.30
2022-11-05T14:11:38.334Z,40.90
2022-11-05T14:16:51.560Z,42.40
2022-11-05T14:21:58.340Z,43.60
2022-11-05T14:27:41.416Z,50.40
2022-11-05T14:32:50.522Z,57.50
2022-11-05T14:37:58.708Z,51.30
2022-11-05T14:43:07.868Z,41.60
2022-11-05T14:48:35.732Z,37.70
2022-11-05T14:53:42.535Z,36.80
2022-11-05T14:58:48.699Z,38.80
2022-11-05T15:04:17.774Z,38.90
2022-11-05T15:09:34.253Z,37.10
2022-11-05T15:14:51.336Z,41.10
2022-11-05T15:20:10.562Z,45.20
2022-11-05T15:25:22.851Z,36.30
2022-11-05T15:30:29.297Z,39.30
2022-11-05T15:35:42.221Z,34.70
2022-11-05T15:40:56.246Z,39.90
2022-11-05T15:46:07.586Z,46.00
2022-11-05T15:51:14.667Z,34.40
2022-11-05T15:56:26.377Z,37.20
2022-11-05T16:01:35.578Z,35.90
2022-11-05T16:06:44.852Z,36.90
2022-11-05T16:12:11.456Z,37.30
2022-11-05T16:17:22.014Z,32.50
2022-11-05T16:22:46.221Z,38.10
2022-11-05T16:27:52.263Z,36.30
2022-11-05T16:33:06.142Z,39.20
2022-11-05T16:38:14.217Z,35.80
2022-11-05T16:43:22.684Z,35.10
2022-11-05T16:48:28.906Z,34.30
2022-11-05T16:53:34.721Z,39.30
2022-11-05T16:58:42.714Z,37.50
2022-11-05T17:03:50.489Z,39.40
2022-11-05T17:08:56.518Z,41.60
2022-11-05T17:14:02.355Z,46.10
2022-11-05T17:19:09.698Z,49.50
2022-11-05T17:24:15.577Z,64.70
2022-11-05T17:29:21.545Z,58.70
2022-11-05T17:34:27.864Z,57.20
2022-11-05T17:39:33.945Z,50.00
2022-11-05T17:44:40.569Z,39.20
2022-11-05T17:49:46.495Z,46.50
2022-11-05T17:54:52.471Z,101.40
2022-11-05T17:59:58.416Z,45.30
2022-11-05T18:05:05.102Z,87.10
2022-11-05T18:10:11.989Z,42.50
2022-11-05T18:15:18.592Z,55.20
2022-11-05T18:20:24.922Z,70.70
2022-11-05T18:25:31.064Z,48.70
2022-11-05T18:30:39.412Z,38.70
2022-11-05T18:35:46.314Z,72.90
2022-11-05T18:40:52.393Z,56.20
2022-11-05T18:45:58.454Z,43.10
2022-11-05T18:51:09.268Z,41.90
2022-11-05T18:56:17.712Z,39.90
2022-11-05T19:01:27.371Z,44.20
2022-11-05T19:06:35.399Z,49.70
2022-11-05T19:11:41.766Z,36.20
2022-11-05T19:16:47.839Z,36.80
2022-11-05T19:21:53.962Z,34.80
2022-11-05T19:26:59.730Z,39.50
2022-11-05T19:32:06.376Z,26.80
2022-11-05T19:37:12.396Z,26.00
2022-11-05T19:42:18.389Z,23.00
2022-11-05T19:47:24.319Z,23.20
2022-11-05T19:52:30.694Z,20.60
2022-11-05T19:57:38.589Z,19.00
2022-11-05T20:02:46.988Z,22.80
2022-11-05T20:07:53.397Z,22.10
2022-11-05T20:12:59.570Z,20.70
2022-11-05T20:18:06.057Z,19.60
2022-11-05T20:23:12.185Z,19.10
2022-11-05T20:28:18.195Z,18.20
2022-11-05T20:33:24.758Z,20.80
2022-11-05T20:38:31.035Z,20.20
2022-11-05T20:43:37.352Z,18.30
2022-11-05T20:48:43.962Z,18.20
2022-11-05T20:53:53.772Z,19.80
2022-11-05T20:59:01.348Z,22.80
2022-11-05T21:04:07.524Z,18.70
2022-11-05T21:09:13.425Z,22.30
2022-11-05T21:14:19.719Z,23.30
2022-11-05T21:19:25.819Z,20.10
2022-11-05T21:24:32.206Z,21.50
2022-11-05T21:29:38.228Z,21.30
2022-11-05T21:34:44.384Z,20.70
2022-11-05T21:39:50.588Z,18.70
2022-11-05T21:45:00.192Z,25.20
2022-11-05T21:50:08.077Z,28.10
2022-11-05T21:55:23.336Z,25.70
2022-11-05T22:00:29.627Z,25.50
2022-11-05T22:05:35.604Z,24.70
2022-11-05T22:10:42.285Z,32.10
2022-11-05T22:15:57.424Z,23.50
2022-11-05T22:21:03.374Z,32.60
2022-11-05T22:26:09.205Z,28.70
2022-11-05T22:31:16.916Z,32.50
2022-11-05T22:36:22.754Z,31.50
2022-11-05T22:41:29.082Z,27.00
2022-11-05T22:46:35.156Z,33.10
2022-11-05T22:51:41.202Z,30.00
2022-11-05T22:56:50.341Z,31.00
2022-11-05T23:01:56.442Z,29.20
2022-11-05T23:07:27.030Z,32.80
2022-11-05T23:17:58.489Z,29.20
2022-11-05T23:23:25.012Z,27.40
2022-11-05T23:28:31.052Z,29.60
2022-11-05T23:33:37.443Z,24.00
2022-11-05T23:38:43.314Z,24.70
2022-11-05T23:44:07.837Z,26.00
2022-11-05T23:49:13.620Z,25.90
2022-11-05T23:54:19.463Z,27.80
2022-11-05T23:59:25.415Z,29.80
